sensor_id;sensor_type;location;lat;lon;timestamp;temperature;humidity
8820;DHT22;4446;50.876;4.736;2023-08-20T00:01:01;18.90;99.90
8820;DHT22;4446;50.876;4.736;2023-08-20T00:03:29;18.80;99.90
8820;DHT22;4446;50.876;4.736;2023-08-20T00:05:57;18.80;99.90
8820;DHT22;4446;50.876;4.736;2023-08-20T00:08:24;18.90;99.90
8820;DHT22;4446;50.876;4.736;2023-08-20T00:10:52;18.90;99.90
8820;DHT22;4446;50.876;4.736;2023-08-20T00:13:19;18.90;99.90
8820;DHT22;4446;50.876;4.736;2023-08-20T00:15:48;18.80;99.90
8820;DHT22;4446;50.876;4.736;2023-08-20T00:18:15;18.80;99.90
8820;DHT22;4446;50.876;4.736;2023-08-20T00:20:43;18.80;99.90
8820;DHT22;4446;50.876;4.736;2023-08-20T00:23:11;18.80;99.90
8820;DHT22;4446;50.876;4.736;2023-08-20T00:25:39;18.80;99.90
8820;DHT22;4446;50.876;4.736;2023-08-20T00:28:08;18.80;99.90
8820;DHT22;4446;50.876;4.736;2023-08-20T00:30:35;18.80;99.90
8820;DHT22;4446;50.876;4.736;2023-08-20T00:33:02;18.80;99.90
8820;DHT22;4446;50.876;4.736;2023-08-20T00:35:29;18.80;99.90
8820;DHT22;4446;50.876;4.736;2023-08-20T00:37:56;18.80;99.90
8820;DHT22;4446;50.876;4.736;2023-08-20T00:40:23;18.80;99.90
8820;DHT22;4446;50.876;4.736;2023-08-20T00:42:50;18.70;99.90
8820;DHT22;4446;50.876;4.736;2023-08-20T00:45:19;18.70;99.90
8820;DHT22;4446;50.876;4.736;2023-08-20T00:47:46;18.60;99.90
8820;DHT22;4446;50.876;4.736;2023-08-20T00:50:13;18.50;99.90
8820;DHT22;4446;50.876;4.736;2023-08-20T00:52:40;18.40;99.90
8820;DHT22;4446;50.876;4.736;2023-08-20T00:55:09;18.40;99.90
8820;DHT22;4446;50.876;4.736;2023-08-20T00:57:36;18.20;99.90
8820;DHT22;4446;50.876;4.736;2023-08-20T01:00:05;18.20;99.90
8820;DHT22;4446;50.876;4.736;2023-08-20T01:02:36;18.10;99.90
8820;DHT22;4446;50.876;4.736;2023-08-20T01:05:04;18.00;99.90
8820;DHT22;4446;50.876;4.736;2023-08-20T01:07:42;17.90;99.90
8820;DHT22;4446;50.876;4.736;2023-08-20T01:10:14;17.80;99.90
8820;DHT22;4446;50.876;4.736;2023-08-20T01:12:44;17.70;99.90
8820;DHT22;4446;50.876;4.736;2023-08-20T01:15:12;17.70;99.90
8820;DHT22;4446;50.876;4.736;2023-08-20T01:17:42;17.60;99.90
8820;DHT22;4446;50.876;4.736;2023-08-20T01:20:12;17.50;99.90
8820;DHT22;4446;50.876;4.736;2023-08-20T01:23:28;17.50;99.90
8820;DHT22;4446;50.876;4.736;2023-08-20T01:28:51;17.50;99.90
8820;DHT22;4446;50.876;4.736;2023-08-20T01:31:18;17.60;99.90
8820;DHT22;4446;50.876;4.736;2023-08-20T01:33:48;17.70;99.90
8820;DHT22;4446;50.876;4.736;2023-08-20T01:36:17;17.90;99.90
8820;DHT22;4446;50.876;4.736;2023-08-20T01:38:44;18.00;99.90
8820;DHT22;4446;50.876;4.736;2023-08-20T01:41:11;18.10;99.90
8820;DHT22;4446;50.876;4.736;2023-08-20T01:43:38;18.10;99.90
8820;DHT22;4446;50.876;4.736;2023-08-20T01:46:08;18.20;99.90
8820;DHT22;4446;50.876;4.736;2023-08-20T01:48:35;18.30;99.90
8820;DHT22;4446;50.876;4.736;2023-08-20T01:51:02;18.40;99.90
8820;DHT22;4446;50.876;4.736;2023-08-20T01:53:29;18.40;99.90
8820;DHT22;4446;50.876;4.736;2023-08-20T01:55:56;18.50;99.90
8820;DHT22;4446;50.876;4.736;2023-08-20T01:58:23;18.60;99.90
8820;DHT22;4446;50.876;4.736;2023-08-20T02:00:51;18.60;99.90
8820;DHT22;4446;50.876;4.736;2023-08-20T02:03:20;18.70;99.90
8820;DHT22;4446;50.876;4.736;2023-08-20T02:05:47;18.70;99.90
8820;DHT22;4446;50.876;4.736;2023-08-20T02:08:14;18.70;99.90
8820;DHT22;4446;50.876;4.736;2023-08-20T02:10:41;18.70;99.90
8820;DHT22;4446;50.876;4.736;2023-08-20T02:13:08;18.80;99.90
8820;DHT22;4446;50.876;4.736;2023-08-20T02:15:35;18.80;99.90
8820;DHT22;4446;50.876;4.736;2023-08-20T02:18:02;18.80;99.90
8820;DHT22;4446;50.876;4.736;2023-08-20T02:20:31;18.90;99.90
8820;DHT22;4446;50.876;4.736;2023-08-20T02:22:58;18.90;99.90
8820;DHT22;4446;50.876;4.736;2023-08-20T02:25:25;18.90;99.90
8820;DHT22;4446;50.876;4.736;2023-08-20T02:27:52;18.90;99.90
8820;DHT22;4446;50.876;4.736;2023-08-20T02:30:19;18.90;99.90
8820;DHT22;4446;50.876;4.736;2023-08-20T02:32:46;18.90;99.90
8820;DHT22;4446;50.876;4.736;2023-08-20T02:35:13;18.80;99.90
8820;DHT22;4446;50.876;4.736;2023-08-20T02:37:44;18.80;99.90
8820;DHT22;4446;50.876;4.736;2023-08-20T02:40:11;18.70;99.90
8820;DHT22;4446;50.876;4.736;2023-08-20T02:42:40;18.60;99.90
8820;DHT22;4446;50.876;4.736;2023-08-20T02:45:07;18.50;99.90
8820;DHT22;4446;50.876;4.736;2023-08-20T02:47:35;18.40;99.90
8820;DHT22;4446;50.876;4.736;2023-08-20T02:50:04;18.30;99.90
8820;DHT22;4446;50.876;4.736;2023-08-20T02:52:31;18.10;99.90
8820;DHT22;4446;50.876;4.736;2023-08-20T02:54:59;18.00;99.90
8820;DHT22;4446;50.876;4.736;2023-08-20T02:57:26;17.80;99.90
8820;DHT22;4446;50.876;4.736;2023-08-20T02:59:53;17.70;99.90
8820;DHT22;4446;50.876;4.736;2023-08-20T03:02:20;17.50;99.90
8820;DHT22;4446;50.876;4.736;2023-08-20T03:04:47;17.40;99.90
8820;DHT22;4446;50.876;4.736;2023-08-20T03:07:14;17.30;99.90
8820;DHT22;4446;50.876;4.736;2023-08-20T03:09:42;17.20;99.90
8820;DHT22;4446;50.876;4.736;2023-08-20T03:12:10;17.10;99.90
8820;DHT22;4446;50.876;4.736;2023-08-20T03:14:37;17.00;99.90
8820;DHT22;4446;50.876;4.736;2023-08-20T03:17:04;16.90;99.90
8820;DHT22;4446;50.876;4.736;2023-08-20T03:19:33;16.90;99.90
8820;DHT22;4446;50.876;4.736;2023-08-20T03:22:01;16.80;99.90
8820;DHT22;4446;50.876;4.736;2023-08-20T03:24:28;16.80;99.90
8820;DHT22;4446;50.876;4.736;2023-08-20T03:26:55;16.70;99.90
8820;DHT22;4446;50.876;4.736;2023-08-20T03:29:23;16.70;99.90
8820;DHT22;4446;50.876;4.736;2023-08-20T03:31:50;16.70;99.90
8820;DHT22;4446;50.876;4.736;2023-08-20T03:34:17;16.60;99.90
8820;DHT22;4446;50.876;4.736;2023-08-20T03:36:44;16.60;99.90
8820;DHT22;4446;50.876;4.736;2023-08-20T03:39:11;16.60;99.90
8820;DHT22;4446;50.876;4.736;2023-08-20T03:41:39;16.50;99.90
8820;DHT22;4446;50.876;4.736;2023-08-20T03:44:06;16.50;99.90
8820;DHT22;4446;50.876;4.736;2023-08-20T03:46:34;16.50;99.90
8820;DHT22;4446;50.876;4.736;2023-08-20T03:49:01;16.50;99.90
8820;DHT22;4446;50.876;4.736;2023-08-20T03:51:28;16.40;99.90
8820;DHT22;4446;50.876;4.736;2023-08-20T03:53:55;16.40;99.90
8820;DHT22;4446;50.876;4.736;2023-08-20T03:56:22;16.30;99.90
8820;DHT22;4446;50.876;4.736;2023-08-20T03:58:50;16.30;99.90
8820;DHT22;4446;50.876;4.736;2023-08-20T04:01:18;16.30;99.90
8820;DHT22;4446;50.876;4.736;2023-08-20T04:03:47;16.30;99.90
8820;DHT22;4446;50.876;4.736;2023-08-20T04:06:14;16.20;99.90
8820;DHT22;4446;50.876;4.736;2023-08-20T04:08:41;16.20;99.90
8820;DHT22;4446;50.876;4.736;2023-08-20T04:11:09;16.10;99.90
8820;DHT22;4446;50.876;4.736;2023-08-20T04:13:36;16.10;99.90
8820;DHT22;4446;50.876;4.736;2023-08-20T04:16:03;16.00;99.90
8820;DHT22;4446;50.876;4.736;2023-08-20T04:18:30;16.00;99.90
8820;DHT22;4446;50.876;4.736;2023-08-20T04:20:58;16.00;99.90
8820;DHT22;4446;50.876;4.736;2023-08-20T04:23:25;16.00;99.90
8820;DHT22;4446;50.876;4.736;2023-08-20T04:25:52;15.90;99.90
8820;DHT22;4446;50.876;4.736;2023-08-20T04:28:19;15.90;99.90
8820;DHT22;4446;50.876;4.736;2023-08-20T04:30:46;15.90;99.90
8820;DHT22;4446;50.876;4.736;2023-08-20T04:33:14;15.90;99.90
8820;DHT22;4446;50.876;4.736;2023-08-20T04:35:42;15.80;99.90
8820;DHT22;4446;50.876;4.736;2023-08-20T04:38:10;15.90;99.90
8820;DHT22;4446;50.876;4.736;2023-08-20T04:40:37;15.90;99.90
8820;DHT22;4446;50.876;4.736;2023-08-20T04:43:04;15.90;99.90
8820;DHT22;4446;50.876;4.736;2023-08-20T04:45:31;15.90;99.90
8820;DHT22;4446;50.876;4.736;2023-08-20T04:47:58;15.90;99.90
8820;DHT22;4446;50.876;4.736;2023-08-20T04:50:25;15.80;99.90
8820;DHT22;4446;50.876;4.736;2023-08-20T04:52:52;15.80;99.90
8820;DHT22;4446;50.876;4.736;2023-08-20T04:55:21;15.80;99.90
8820;DHT22;4446;50.876;4.736;2023-08-20T04:57:48;15.80;99.90
8820;DHT22;4446;50.876;4.736;2023-08-20T05:00:15;15.80;99.90
8820;DHT22;4446;50.876;4.736;2023-08-20T05:02:42;15.80;99.90
8820;DHT22;4446;50.876;4.736;2023-08-20T05:05:10;15.80;99.90
8820;DHT22;4446;50.876;4.736;2023-08-20T05:07:37;15.90;99.90
8820;DHT22;4446;50.876;4.736;2023-08-20T05:10:05;15.90;99.90
8820;DHT22;4446;50.876;4.736;2023-08-20T05:12:33;15.90;99.90
8820;DHT22;4446;50.876;4.736;2023-08-20T05:15:00;15.90;99.90
8820;DHT22;4446;50.876;4.736;2023-08-20T05:17:27;15.90;99.90
8820;DHT22;4446;50.876;4.736;2023-08-20T05:19:54;16.00;99.90
8820;DHT22;4446;50.876;4.736;2023-08-20T05:22:21;16.10;99.90
8820;DHT22;4446;50.876;4.736;2023-08-20T05:24:48;16.10;99.90
8820;DHT22;4446;50.876;4.736;2023-08-20T05:27:16;16.10;99.90
8820;DHT22;4446;50.876;4.736;2023-08-20T05:29:45;16.20;99.90
8820;DHT22;4446;50.876;4.736;2023-08-20T05:32:12;16.20;99.90
8820;DHT22;4446;50.876;4.736;2023-08-20T05:34:40;16.20;99.90
8820;DHT22;4446;50.876;4.736;2023-08-20T05:37:07;16.30;99.90
8820;DHT22;4446;50.876;4.736;2023-08-20T05:39:36;16.40;99.90
8820;DHT22;4446;50.876;4.736;2023-08-20T05:42:04;16.40;99.90
8820;DHT22;4446;50.876;4.736;2023-08-20T05:44:31;16.40;99.90
8820;DHT22;4446;50.876;4.736;2023-08-20T05:47:00;16.50;99.90
8820;DHT22;4446;50.876;4.736;2023-08-20T05:49:27;16.50;99.90
8820;DHT22;4446;50.876;4.736;2023-08-20T05:51:54;16.60;99.90
8820;DHT22;4446;50.876;4.736;2023-08-20T05:54:21;16.60;99.90
8820;DHT22;4446;50.876;4.736;2023-08-20T05:56:48;16.70;99.90
8820;DHT22;4446;50.876;4.736;2023-08-20T05:59:15;16.80;99.90
8820;DHT22;4446;50.876;4.736;2023-08-20T06:01:42;16.80;99.90
8820;DHT22;4446;50.876;4.736;2023-08-20T06:04:11;16.80;99.90
8820;DHT22;4446;50.876;4.736;2023-08-20T06:06:38;16.90;99.90
8820;DHT22;4446;50.876;4.736;2023-08-20T06:09:05;17.00;99.90
8820;DHT22;4446;50.876;4.736;2023-08-20T06:11:32;17.00;99.90
8820;DHT22;4446;50.876;4.736;2023-08-20T06:13:58;17.10;99.90
8820;DHT22;4446;50.876;4.736;2023-08-20T06:16:25;17.10;99.90
8820;DHT22;4446;50.876;4.736;2023-08-20T06:18:52;17.20;99.90
8820;DHT22;4446;50.876;4.736;2023-08-20T06:21:21;17.30;99.90
8820;DHT22;4446;50.876;4.736;2023-08-20T06:23:48;17.30;99.90
8820;DHT22;4446;50.876;4.736;2023-08-20T06:26:15;17.40;99.90
8820;DHT22;4446;50.876;4.736;2023-08-20T06:28:42;17.50;99.90
8820;DHT22;4446;50.876;4.736;2023-08-20T06:31:09;17.60;99.90
8820;DHT22;4446;50.876;4.736;2023-08-20T06:33:36;17.70;99.90
8820;DHT22;4446;50.876;4.736;2023-08-20T06:36:04;17.70;99.90
8820;DHT22;4446;50.876;4.736;2023-08-20T06:38:32;17.80;99.90
8820;DHT22;4446;50.876;4.736;2023-08-20T06:40:59;17.90;99.90
8820;DHT22;4446;50.876;4.736;2023-08-20T06:43:26;18.00;99.90
8820;DHT22;4446;50.876;4.736;2023-08-20T06:45:53;18.10;99.90
8820;DHT22;4446;50.876;4.736;2023-08-20T06:48:20;18.10;99.90
8820;DHT22;4446;50.876;4.736;2023-08-20T06:50:49;18.20;99.90
8820;DHT22;4446;50.876;4.736;2023-08-20T06:53:16;18.30;99.90
8820;DHT22;4446;50.876;4.736;2023-08-20T06:55:44;18.40;99.90
8820;DHT22;4446;50.876;4.736;2023-08-20T06:58:11;18.50;99.90
8820;DHT22;4446;50.876;4.736;2023-08-20T07:00:38;18.50;99.90
8820;DHT22;4446;50.876;4.736;2023-08-20T07:03:05;18.60;99.90
8820;DHT22;4446;50.876;4.736;2023-08-20T07:05:32;18.70;99.90
8820;DHT22;4446;50.876;4.736;2023-08-20T07:07:59;18.70;99.90
8820;DHT22;4446;50.876;4.736;2023-08-20T07:10:26;18.90;99.90
8820;DHT22;4446;50.876;4.736;2023-08-20T07:12:54;19.00;99.90
8820;DHT22;4446;50.876;4.736;2023-08-20T07:15:21;19.00;99.90
8820;DHT22;4446;50.876;4.736;2023-08-20T07:17:48;19.20;99.90
8820;DHT22;4446;50.876;4.736;2023-08-20T07:20:16;19.20;99.90
8820;DHT22;4446;50.876;4.736;2023-08-20T07:22:43;19.30;99.90
8820;DHT22;4446;50.876;4.736;2023-08-20T07:25:10;19.40;99.90
8820;DHT22;4446;50.876;4.736;2023-08-20T07:27:36;19.50;99.90
8820;DHT22;4446;50.876;4.736;2023-08-20T07:30:06;19.60;99.90
8820;DHT22;4446;50.876;4.736;2023-08-20T07:32:33;19.80;99.90
8820;DHT22;4446;50.876;4.736;2023-08-20T07:35:00;19.90;99.90
8820;DHT22;4446;50.876;4.736;2023-08-20T07:37:27;20.00;99.90
8820;DHT22;4446;50.876;4.736;2023-08-20T07:39:54;20.10;99.90
8820;DHT22;4446;50.876;4.736;2023-08-20T07:42:21;20.20;99.90
8820;DHT22;4446;50.876;4.736;2023-08-20T07:44:48;20.40;99.90
8820;DHT22;4446;50.876;4.736;2023-08-20T07:47:17;20.40;99.90
8820;DHT22;4446;50.876;4.736;2023-08-20T07:49:44;20.50;99.90
8820;DHT22;4446;50.876;4.736;2023-08-20T07:52:11;20.60;99.90
8820;DHT22;4446;50.876;4.736;2023-08-20T07:54:38;20.70;99.90
8820;DHT22;4446;50.876;4.736;2023-08-20T07:57:05;20.80;99.90
8820;DHT22;4446;50.876;4.736;2023-08-20T07:59:32;20.90;99.90
8820;DHT22;4446;50.876;4.736;2023-08-20T08:01:59;21.00;99.90
8820;DHT22;4446;50.876;4.736;2023-08-20T08:04:28;21.10;99.90
8820;DHT22;4446;50.876;4.736;2023-08-20T08:06:55;21.20;99.90
8820;DHT22;4446;50.876;4.736;2023-08-20T08:09:26;21.30;99.90
8820;DHT22;4446;50.876;4.736;2023-08-20T08:11:53;21.40;99.90
8820;DHT22;4446;50.876;4.736;2023-08-20T08:14:21;21.50;99.90
8820;DHT22;4446;50.876;4.736;2023-08-20T08:16:48;21.60;99.90
8820;DHT22;4446;50.876;4.736;2023-08-20T08:19:16;21.70;99.90
8820;DHT22;4446;50.876;4.736;2023-08-20T08:21:45;21.80;99.90
8820;DHT22;4446;50.876;4.736;2023-08-20T08:24:12;21.90;99.90
8820;DHT22;4446;50.876;4.736;2023-08-20T08:26:40;22.00;99.90
8820;DHT22;4446;50.876;4.736;2023-08-20T08:29:08;22.10;99.90
8820;DHT22;4446;50.876;4.736;2023-08-20T08:31:35;22.20;99.90
8820;DHT22;4446;50.876;4.736;2023-08-20T08:34:03;22.30;99.90
8820;DHT22;4446;50.876;4.736;2023-08-20T08:36:33;22.40;99.90
8820;DHT22;4446;50.876;4.736;2023-08-20T08:39:02;22.50;99.90
8820;DHT22;4446;50.876;4.736;2023-08-20T08:41:29;22.60;99.90
8820;DHT22;4446;50.876;4.736;2023-08-20T08:43:57;22.70;99.90
8820;DHT22;4446;50.876;4.736;2023-08-20T08:46:25;22.80;99.90
8820;DHT22;4446;50.876;4.736;2023-08-20T08:48:52;22.70;99.90
8820;DHT22;4446;50.876;4.736;2023-08-20T08:51:19;22.80;99.90
8820;DHT22;4446;50.876;4.736;2023-08-20T08:53:47;22.90;99.90
8820;DHT22;4446;50.876;4.736;2023-08-20T08:56:20;22.90;99.90
8820;DHT22;4446;50.876;4.736;2023-08-20T08:58:48;22.90;99.90
8820;DHT22;4446;50.876;4.736;2023-08-20T09:01:15;23.00;99.90
8820;DHT22;4446;50.876;4.736;2023-08-20T09:03:42;23.00;99.90
8820;DHT22;4446;50.876;4.736;2023-08-20T09:06:09;23.10;99.90
8820;DHT22;4446;50.876;4.736;2023-08-20T09:08:37;23.20;99.90
8820;DHT22;4446;50.876;4.736;2023-08-20T09:11:04;23.20;99.90
8820;DHT22;4446;50.876;4.736;2023-08-20T09:13:36;23.30;99.90
8820;DHT22;4446;50.876;4.736;2023-08-20T09:16:04;23.40;99.90
8820;DHT22;4446;50.876;4.736;2023-08-20T09:18:32;23.50;99.90
8820;DHT22;4446;50.876;4.736;2023-08-20T09:20:59;23.50;99.90
8820;DHT22;4446;50.876;4.736;2023-08-20T09:23:29;23.60;99.90
8820;DHT22;4446;50.876;4.736;2023-08-20T09:25:56;23.70;99.90
8820;DHT22;4446;50.876;4.736;2023-08-20T09:28:23;23.70;99.90
8820;DHT22;4446;50.876;4.736;2023-08-20T09:30:59;23.80;99.90
8820;DHT22;4446;50.876;4.736;2023-08-20T09:33:28;23.80;99.90
8820;DHT22;4446;50.876;4.736;2023-08-20T09:35:55;23.90;99.90
8820;DHT22;4446;50.876;4.736;2023-08-20T09:38:23;24.00;99.90
8820;DHT22;4446;50.876;4.736;2023-08-20T09:40:52;24.10;99.90
8820;DHT22;4446;50.876;4.736;2023-08-20T09:43:24;24.10;99.90
8820;DHT22;4446;50.876;4.736;2023-08-20T09:45:55;24.10;99.90
8820;DHT22;4446;50.876;4.736;2023-08-20T09:48:26;24.20;99.90
8820;DHT22;4446;50.876;4.736;2023-08-20T09:50:57;24.30;99.90
8820;DHT22;4446;50.876;4.736;2023-08-20T09:53:27;24.40;99.90
8820;DHT22;4446;50.876;4.736;2023-08-20T09:56:15;24.50;99.90
8820;DHT22;4446;50.876;4.736;2023-08-20T09:58:43;24.60;99.90
8820;DHT22;4446;50.876;4.736;2023-08-20T10:01:10;24.70;99.90
8820;DHT22;4446;50.876;4.736;2023-08-20T10:03:41;24.70;99.90
8820;DHT22;4446;50.876;4.736;2023-08-20T10:06:10;24.80;99.90
8820;DHT22;4446;50.876;4.736;2023-08-20T10:08:38;24.90;99.90
8820;DHT22;4446;50.876;4.736;2023-08-20T10:11:05;25.00;99.90
8820;DHT22;4446;50.876;4.736;2023-08-20T10:13:32;25.00;99.90
8820;DHT22;4446;50.876;4.736;2023-08-20T10:15:59;25.10;99.90
8820;DHT22;4446;50.876;4.736;2023-08-20T10:18:27;25.10;99.90
8820;DHT22;4446;50.876;4.736;2023-08-20T10:20:57;25.10;99.90
8820;DHT22;4446;50.876;4.736;2023-08-20T10:23:24;25.20;99.90
8820;DHT22;4446;50.876;4.736;2023-08-20T10:25:52;25.20;99.90
8820;DHT22;4446;50.876;4.736;2023-08-20T10:28:21;25.20;99.90
8820;DHT22;4446;50.876;4.736;2023-08-20T10:31:05;25.30;99.90
8820;DHT22;4446;50.876;4.736;2023-08-20T10:33:34;25.30;99.90
8820;DHT22;4446;50.876;4.736;2023-08-20T10:36:13;25.30;99.90
8820;DHT22;4446;50.876;4.736;2023-08-20T10:38:40;25.40;99.90
8820;DHT22;4446;50.876;4.736;2023-08-20T10:41:08;25.50;99.90
8820;DHT22;4446;50.876;4.736;2023-08-20T10:43:37;25.60;99.90
8820;DHT22;4446;50.876;4.736;2023-08-20T10:46:14;25.70;99.90
8820;DHT22;4446;50.876;4.736;2023-08-20T10:48:42;25.70;99.90
8820;DHT22;4446;50.876;4.736;2023-08-20T10:51:13;25.70;99.90
8820;DHT22;4446;50.876;4.736;2023-08-20T10:53:41;25.80;99.90
8820;DHT22;4446;50.876;4.736;2023-08-20T10:56:10;25.80;99.90
8820;DHT22;4446;50.876;4.736;2023-08-20T10:58:40;25.80;99.90
8820;DHT22;4446;50.876;4.736;2023-08-20T11:01:20;25.90;99.90
8820;DHT22;4446;50.876;4.736;2023-08-20T11:03:50;25.90;99.90
8820;DHT22;4446;50.876;4.736;2023-08-20T11:06:18;26.00;99.90
8820;DHT22;4446;50.876;4.736;2023-08-20T11:08:45;26.20;99.90
8820;DHT22;4446;50.876;4.736;2023-08-20T11:11:13;26.40;99.90
8820;DHT22;4446;50.876;4.736;2023-08-20T11:13:40;26.50;99.90
8820;DHT22;4446;50.876;4.736;2023-08-20T11:16:08;26.60;99.90
8820;DHT22;4446;50.876;4.736;2023-08-20T11:18:36;26.60;99.90
8820;DHT22;4446;50.876;4.736;2023-08-20T11:21:03;26.70;99.90
8820;DHT22;4446;50.876;4.736;2023-08-20T11:23:32;26.80;99.90
8820;DHT22;4446;50.876;4.736;2023-08-20T11:25:59;27.00;99.90
8820;DHT22;4446;50.876;4.736;2023-08-20T11:28:27;27.00;99.90
8820;DHT22;4446;50.876;4.736;2023-08-20T11:30:54;27.10;99.90
8820;DHT22;4446;50.876;4.736;2023-08-20T11:33:23;27.10;99.90
8820;DHT22;4446;50.876;4.736;2023-08-20T11:35:52;27.30;99.90
8820;DHT22;4446;50.876;4.736;2023-08-20T11:38:22;27.40;99.90
8820;DHT22;4446;50.876;4.736;2023-08-20T11:40:51;27.40;99.90
8820;DHT22;4446;50.876;4.736;2023-08-20T11:43:18;27.50;99.90
8820;DHT22;4446;50.876;4.736;2023-08-20T11:45:47;27.60;99.90
8820;DHT22;4446;50.876;4.736;2023-08-20T11:48:15;27.70;99.90
8820;DHT22;4446;50.876;4.736;2023-08-20T11:50:42;27.80;99.90
8820;DHT22;4446;50.876;4.736;2023-08-20T11:53:10;27.70;99.90
8820;DHT22;4446;50.876;4.736;2023-08-20T11:55:39;27.80;99.90
8820;DHT22;4446;50.876;4.736;2023-08-20T11:58:11;28.00;99.90
8820;DHT22;4446;50.876;4.736;2023-08-20T12:00:39;28.10;99.90
8820;DHT22;4446;50.876;4.736;2023-08-20T12:03:08;28.30;99.90
8820;DHT22;4446;50.876;4.736;2023-08-20T12:05:35;28.40;99.90
8820;DHT22;4446;50.876;4.736;2023-08-20T12:08:03;28.40;99.90
8820;DHT22;4446;50.876;4.736;2023-08-20T12:10:31;28.50;99.90
8820;DHT22;4446;50.876;4.736;2023-08-20T12:12:59;28.60;99.90
8820;DHT22;4446;50.876;4.736;2023-08-20T12:15:27;28.70;99.90
8820;DHT22;4446;50.876;4.736;2023-08-20T12:17:59;28.70;99.90
8820;DHT22;4446;50.876;4.736;2023-08-20T12:20:27;28.80;99.90
8820;DHT22;4446;50.876;4.736;2023-08-20T12:22:58;29.10;99.90
8820;DHT22;4446;50.876;4.736;2023-08-20T12:25:25;29.30;99.90
8820;DHT22;4446;50.876;4.736;2023-08-20T12:27:52;29.30;99.90
8820;DHT22;4446;50.876;4.736;2023-08-20T12:30:19;29.30;99.90
8820;DHT22;4446;50.876;4.736;2023-08-20T12:32:48;29.50;99.90
8820;DHT22;4446;50.876;4.736;2023-08-20T12:35:15;29.60;99.90
8820;DHT22;4446;50.876;4.736;2023-08-20T12:37:42;29.70;99.90
8820;DHT22;4446;50.876;4.736;2023-08-20T12:40:10;29.50;99.90
8820;DHT22;4446;50.876;4.736;2023-08-20T12:42:38;29.30;99.90
8820;DHT22;4446;50.876;4.736;2023-08-20T12:45:06;29.40;99.90
8820;DHT22;4446;50.876;4.736;2023-08-20T12:47:33;29.50;99.90
8820;DHT22;4446;50.876;4.736;2023-08-20T12:50:02;29.50;99.90
8820;DHT22;4446;50.876;4.736;2023-08-20T12:52:30;29.70;99.90
8820;DHT22;4446;50.876;4.736;2023-08-20T12:54:57;29.60;99.90
8820;DHT22;4446;50.876;4.736;2023-08-20T12:57:24;29.50;99.90
8820;DHT22;4446;50.876;4.736;2023-08-20T12:59:51;29.60;99.90
8820;DHT22;4446;50.876;4.736;2023-08-20T13:02:19;29.60;99.90
8820;DHT22;4446;50.876;4.736;2023-08-20T13:04:47;29.80;99.90
8820;DHT22;4446;50.876;4.736;2023-08-20T13:07:18;29.80;99.90
8820;DHT22;4446;50.876;4.736;2023-08-20T13:09:45;29.80;99.90
8820;DHT22;4446;50.876;4.736;2023-08-20T13:12:13;29.70;99.90
8820;DHT22;4446;50.876;4.736;2023-08-20T13:14:41;29.80;99.90
8820;DHT22;4446;50.876;4.736;2023-08-20T13:17:09;30.30;99.90
8820;DHT22;4446;50.876;4.736;2023-08-20T13:19:36;30.40;99.90
8820;DHT22;4446;50.876;4.736;2023-08-20T13:22:04;30.60;99.90
8820;DHT22;4446;50.876;4.736;2023-08-20T13:24:33;30.90;99.90
8820;DHT22;4446;50.876;4.736;2023-08-20T13:27:00;30.80;99.90
8820;DHT22;4446;50.876;4.736;2023-08-20T13:29:27;30.90;99.90
8820;DHT22;4446;50.876;4.736;2023-08-20T13:31:54;30.90;99.90
8820;DHT22;4446;50.876;4.736;2023-08-20T13:34:21;30.60;99.90
8820;DHT22;4446;50.876;4.736;2023-08-20T13:36:48;30.80;99.90
8820;DHT22;4446;50.876;4.736;2023-08-20T13:39:15;30.90;99.90
8820;DHT22;4446;50.876;4.736;2023-08-20T13:41:49;31.00;99.90
8820;DHT22;4446;50.876;4.736;2023-08-20T13:44:16;30.60;99.90
8820;DHT22;4446;50.876;4.736;2023-08-20T13:46:43;30.90;99.90
8820;DHT22;4446;50.876;4.736;2023-08-20T13:49:10;31.00;99.90
8820;DHT22;4446;50.876;4.736;2023-08-20T13:51:37;31.40;99.90
8820;DHT22;4446;50.876;4.736;2023-08-20T13:54:04;31.80;99.90
8820;DHT22;4446;50.876;4.736;2023-08-20T13:56:32;31.80;99.90
8820;DHT22;4446;50.876;4.736;2023-08-20T13:59:00;31.50;99.90
8820;DHT22;4446;50.876;4.736;2023-08-20T14:01:27;31.70;99.90
8820;DHT22;4446;50.876;4.736;2023-08-20T14:03:54;31.50;99.90
8820;DHT22;4446;50.876;4.736;2023-08-20T14:06:21;30.70;99.90
8820;DHT22;4446;50.876;4.736;2023-08-20T14:08:48;30.40;99.90
8820;DHT22;4446;50.876;4.736;2023-08-20T14:11:15;31.00;99.90
8820;DHT22;4446;50.876;4.736;2023-08-20T14:13:42;31.90;99.90
8820;DHT22;4446;50.876;4.736;2023-08-20T14:16:10;32.80;99.90
8820;DHT22;4446;50.876;4.736;2023-08-20T14:18:37;33.90;99.90
8820;DHT22;4446;50.876;4.736;2023-08-20T14:21:04;34.30;99.90
8820;DHT22;4446;50.876;4.736;2023-08-20T14:23:31;34.70;99.90
8820;DHT22;4446;50.876;4.736;2023-08-20T14:25:59;35.40;99.90
8820;DHT22;4446;50.876;4.736;2023-08-20T14:28:26;35.50;99.90
8820;DHT22;4446;50.876;4.736;2023-08-20T14:30:52;36.10;99.90
8820;DHT22;4446;50.876;4.736;2023-08-20T14:33:22;36.20;98.80
8820;DHT22;4446;50.876;4.736;2023-08-20T14:35:49;36.50;97.70
8820;DHT22;4446;50.876;4.736;2023-08-20T14:38:17;36.60;97.30
8820;DHT22;4446;50.876;4.736;2023-08-20T14:40:44;36.50;95.90
8820;DHT22;4446;50.876;4.736;2023-08-20T14:43:11;36.90;94.30
8820;DHT22;4446;50.876;4.736;2023-08-20T14:45:38;36.20;95.70
8820;DHT22;4446;50.876;4.736;2023-08-20T14:48:05;35.50;95.70
8820;DHT22;4446;50.876;4.736;2023-08-20T14:50:33;36.20;96.80
8820;DHT22;4446;50.876;4.736;2023-08-20T14:53:00;37.20;94.10
8820;DHT22;4446;50.876;4.736;2023-08-20T14:55:27;37.10;93.20
8820;DHT22;4446;50.876;4.736;2023-08-20T14:57:54;36.30;93.30
8820;DHT22;4446;50.876;4.736;2023-08-20T15:00:21;36.00;94.40
8820;DHT22;4446;50.876;4.736;2023-08-20T15:02:49;35.40;93.90
8820;DHT22;4446;50.876;4.736;2023-08-20T15:05:16;34.40;95.40
8820;DHT22;4446;50.876;4.736;2023-08-20T15:07:45;34.00;96.10
8820;DHT22;4446;50.876;4.736;2023-08-20T15:10:12;34.30;96.10
8820;DHT22;4446;50.876;4.736;2023-08-20T15:12:40;34.40;97.90
8820;DHT22;4446;50.876;4.736;2023-08-20T15:15:07;34.80;96.00
8820;DHT22;4446;50.876;4.736;2023-08-20T15:17:36;35.70;95.40
8820;DHT22;4446;50.876;4.736;2023-08-20T15:20:04;36.20;95.50
8820;DHT22;4446;50.876;4.736;2023-08-20T15:22:33;36.40;94.40
8820;DHT22;4446;50.876;4.736;2023-08-20T15:25:01;36.60;93.30
8820;DHT22;4446;50.876;4.736;2023-08-20T15:27:30;37.00;92.70
8820;DHT22;4446;50.876;4.736;2023-08-20T15:29:57;36.90;92.50
8820;DHT22;4446;50.876;4.736;2023-08-20T15:32:23;36.70;93.80
8820;DHT22;4446;50.876;4.736;2023-08-20T15:34:53;36.50;92.90
8820;DHT22;4446;50.876;4.736;2023-08-20T15:37:20;36.00;93.60
8820;DHT22;4446;50.876;4.736;2023-08-20T15:39:47;35.10;93.50
8820;DHT22;4446;50.876;4.736;2023-08-20T15:42:16;34.60;94.20
8820;DHT22;4446;50.876;4.736;2023-08-20T15:44:44;34.20;95.40
8820;DHT22;4446;50.876;4.736;2023-08-20T15:47:11;33.60;95.80
8820;DHT22;4446;50.876;4.736;2023-08-20T15:49:38;32.80;96.50
8820;DHT22;4446;50.876;4.736;2023-08-20T15:52:05;32.10;97.10
8820;DHT22;4446;50.876;4.736;2023-08-20T15:54:32;31.50;99.70
8820;DHT22;4446;50.876;4.736;2023-08-20T15:56:59;31.00;99.90
8820;DHT22;4446;50.876;4.736;2023-08-20T15:59:28;30.60;99.90
8820;DHT22;4446;50.876;4.736;2023-08-20T16:01:55;30.60;99.90
8820;DHT22;4446;50.876;4.736;2023-08-20T16:04:22;31.10;99.90
8820;DHT22;4446;50.876;4.736;2023-08-20T16:06:49;31.60;99.90
8820;DHT22;4446;50.876;4.736;2023-08-20T16:09:16;31.70;99.90